Time;durP1;ratioP1;P1;durP2;ratioP2;P2;SDS_P1;SDS_P2;PMS_P1;PMS_P2;Temp;Humidity;BMP_temperature;BMP_pressure;BME280_temperature;BME280_humidity;BME280_pressure;Samples;Min_cycle;Max_cycle;Signal;HPM_P1;HPM_P2
2021/10/16 00:01:11;;;;;;;;;;;6.90;99.90;;;;;;4991316;28;19975;-72
2021/10/16 00:03:38;;;;;;;;;;;6.80;99.90;;;;;;5008300;28;20005;-72
2021/10/16 00:06:04;;;;;;;;;;;6.80;99.90;;;;;;5011905;28;20322;-72
2021/10/16 00:08:31;;;;;;;;;;;6.80;99.90;;;;;;5006508;28;20435;-72
2021/10/16 00:10:58;;;;;;;;;;;6.80;99.90;;;;;;5011794;28;19947;-72
2021/10/16 00:13:24;;;;;;;;;;;6.70;99.90;;;;;;4996262;28;19956;-72
2021/10/16 00:15:52;;;;;;;;;;;6.60;99.90;;;;;;4992433;28;19949;-72
2021/10/16 00:18:19;;;;;;;;;;;6.60;99.90;;;;;;5005910;28;19964;-72
2021/10/16 00:20:46;;;;;;;;;;;6.60;99.90;;;;;;5011495;28;20417;-72
2021/10/16 00:23:12;;;;;;;;;;;6.60;99.90;;;;;;4998029;28;20055;-72
2021/10/16 00:25:39;;;;;;;;;;;6.50;99.90;;;;;;4999846;28;19950;-72
2021/10/16 00:28:05;;;;;;;;;;;6.50;99.90;;;;;;4998457;28;20423;-72
2021/10/16 00:30:32;;;;;;;;;;;6.50;99.90;;;;;;4992061;28;19953;-72
2021/10/16 00:33:00;;;;;;;;;;;6.50;99.90;;;;;;5002885;28;19953;-72
2021/10/16 00:35:27;;;;;;;;;;;6.50;99.90;;;;;;5011660;28;19958;-72
2021/10/16 00:37:53;;;;;;;;;;;6.50;99.90;;;;;;5008771;28;20434;-72
2021/10/16 00:40:20;;;;;;;;;;;6.60;99.90;;;;;;5011555;28;19956;-72
2021/10/16 00:42:47;;;;;;;;;;;6.70;99.90;;;;;;5009653;28;19981;-71
2021/10/16 00:45:14;;;;;;;;;;;6.80;99.90;;;;;;5011743;28;19950;-73
2021/10/16 00:47:41;;;;;;;;;;;6.90;99.90;;;;;;5009905;28;19954;-72
2021/10/16 00:50:10;;;;;;;;;;;6.90;99.90;;;;;;5011870;28;19953;-72
2021/10/16 00:52:38;;;;;;;;;;;7.00;99.90;;;;;;5009321;28;20002;-72
2021/10/16 00:55:06;;;;;;;;;;;7.00;99.90;;;;;;5011618;28;20003;-72
2021/10/16 00:57:32;;;;;;;;;;;7.00;99.90;;;;;;5009706;28;19961;-72
2021/10/16 00:59:59;;;;;;;;;;;7.00;99.90;;;;;;5008063;28;19947;-72
2021/10/16 01:02:26;;;;;;;;;;;7.00;99.90;;;;;;4999281;28;19966;-72
2021/10/16 01:04:52;;;;;;;;;;;6.80;99.90;;;;;;5006230;28;19947;-71
2021/10/16 01:07:20;;;;;;;;;;;6.80;99.90;;;;;;4996821;28;19955;-72
2021/10/16 01:09:47;;;;;;;;;;;6.80;99.90;;;;;;5011107;28;20441;-73
2021/10/16 01:12:14;;;;;;;;;;;6.80;99.90;;;;;;5008478;28;19956;-72
2021/10/16 01:14:42;;;;;;;;;;;6.80;99.90;;;;;;5008488;28;19951;-72
2021/10/16 01:17:09;;;;;;;;;;;6.90;99.90;;;;;;4995556;28;20516;-72
2021/10/16 01:19:37;;;;;;;;;;;6.90;99.90;;;;;;5011361;28;20410;-72
2021/10/16 01:22:05;;;;;;;;;;;6.80;99.90;;;;;;5008415;28;19956;-72
2021/10/16 01:24:32;;;;;;;;;;;6.80;99.90;;;;;;5010740;28;19949;-72
2021/10/16 01:26:59;;;;;;;;;;;6.80;99.90;;;;;;5009469;28;20378;-72
2021/10/16 01:29:26;;;;;;;;;;;6.70;99.90;;;;;;5011110;28;19953;-72
2021/10/16 01:31:59;;;;;;;;;;;6.70;99.90;;;;;;5008105;28;20445;-72
2021/10/16 01:34:25;;;;;;;;;;;6.60;99.90;;;;;;4990380;28;19973;-72
2021/10/16 01:36:52;;;;;;;;;;;6.50;99.90;;;;;;4993014;28;19949;-72
2021/10/16 01:39:21;;;;;;;;;;;6.50;99.90;;;;;;5010864;28;19955;-72
2021/10/16 01:41:48;;;;;;;;;;;6.60;99.90;;;;;;5008961;28;19957;-72
2021/10/16 01:44:15;;;;;;;;;;;6.60;99.90;;;;;;5010969;28;19973;-72
2021/10/16 01:46:42;;;;;;;;;;;6.60;99.90;;;;;;5009036;28;19961;-72
2021/10/16 01:49:09;;;;;;;;;;;6.70;99.90;;;;;;5004073;28;20078;-73
2021/10/16 01:51:36;;;;;;;;;;;6.80;99.90;;;;;;4990885;28;19991;-72
2021/10/16 01:54:03;;;;;;;;;;;6.80;99.90;;;;;;5009739;28;19965;-72
2021/10/16 01:56:31;;;;;;;;;;;6.80;99.90;;;;;;4992921;28;19955;-72
2021/10/16 01:58:57;;;;;;;;;;;6.90;99.90;;;;;;4991870;28;19961;-72
2021/10/16 02:01:24;;;;;;;;;;;6.90;99.90;;;;;;5008393;28;19974;-72
2021/10/16 02:03:51;;;;;;;;;;;6.90;99.90;;;;;;5006571;28;20131;-72
2021/10/16 02:06:17;;;;;;;;;;;6.90;99.90;;;;;;4993872;28;19962;-72
2021/10/16 02:08:44;;;;;;;;;;;6.90;99.90;;;;;;5007300;28;20422;-72
2021/10/16 02:11:10;;;;;;;;;;;6.90;99.90;;;;;;5010334;28;19951;-72
2021/10/16 02:13:38;;;;;;;;;;;6.90;99.90;;;;;;5003295;28;19954;-72
2021/10/16 02:16:05;;;;;;;;;;;7.00;99.90;;;;;;4990893;28;20481;-72
2021/10/16 02:18:32;;;;;;;;;;;7.00;99.90;;;;;;5004690;28;19992;-72
2021/10/16 02:21:00;;;;;;;;;;;7.00;99.90;;;;;;5009927;28;20312;-73
2021/10/16 02:23:26;;;;;;;;;;;7.00;99.90;;;;;;5007490;28;19995;-72
2021/10/16 02:25:53;;;;;;;;;;;7.00;99.90;;;;;;5010261;28;19957;-73
2021/10/16 02:28:20;;;;;;;;;;;7.10;99.90;;;;;;5008121;28;19953;-72
2021/10/16 02:30:48;;;;;;;;;;;7.10;99.90;;;;;;5009892;28;19958;-72
2021/10/16 02:33:14;;;;;;;;;;;7.20;99.90;;;;;;4995528;28;19978;-72
2021/10/16 02:35:41;;;;;;;;;;;7.20;99.90;;;;;;4990416;28;19965;-71
2021/10/16 02:38:08;;;;;;;;;;;7.20;99.90;;;;;;5001983;28;20063;-70
2021/10/16 02:40:34;;;;;;;;;;;7.20;99.90;;;;;;5009945;28;20387;-71
2021/10/16 02:43:03;;;;;;;;;;;7.20;99.90;;;;;;5007953;28;20522;-71
2021/10/16 02:45:30;;;;;;;;;;;7.20;99.90;;;;;;5001551;28;20328;-72
2021/10/16 02:47:58;;;;;;;;;;;7.20;99.90;;;;;;5000414;28;19964;-71
2021/10/16 02:50:24;;;;;;;;;;;7.20;99.90;;;;;;5009826;28;19934;-71
2021/10/16 02:52:51;;;;;;;;;;;7.20;99.90;;;;;;5007770;28;19959;-72
2021/10/16 02:55:18;;;;;;;;;;;7.20;99.90;;;;;;5009475;28;20330;-71
2021/10/16 02:57:44;;;;;;;;;;;7.20;99.90;;;;;;5000041;28;19962;-71
2021/10/16 03:00:11;;;;;;;;;;;7.20;99.90;;;;;;4989937;28;20471;-71
2021/10/16 03:02:38;;;;;;;;;;;7.20;99.90;;;;;;4997662;28;20331;-71
2021/10/16 03:05:07;;;;;;;;;;;7.30;99.90;;;;;;5007572;28;20410;-71
2021/10/16 03:07:33;;;;;;;;;;;7.30;99.90;;;;;;5004329;28;19956;-71
2021/10/16 03:10:00;;;;;;;;;;;7.30;99.90;;;;;;5009637;28;19959;-71
2021/10/16 03:12:27;;;;;;;;;;;7.30;99.90;;;;;;5002405;28;19962;-71
2021/10/16 03:14:53;;;;;;;;;;;7.30;99.90;;;;;;4990939;28;20415;-71
2021/10/16 03:17:20;;;;;;;;;;;7.30;99.90;;;;;;4994585;28;20505;-71
2021/10/16 03:19:47;;;;;;;;;;;7.40;99.90;;;;;;5009514;28;19948;-71
2021/10/16 03:22:15;;;;;;;;;;;7.40;99.90;;;;;;5007826;28;19956;-71
2021/10/16 03:24:41;;;;;;;;;;;7.40;99.90;;;;;;5009442;28;19971;-71
2021/10/16 03:27:08;;;;;;;;;;;7.30;99.90;;;;;;5007631;28;19950;-71
2021/10/16 03:29:34;;;;;;;;;;;7.20;99.90;;;;;;5009138;28;19955;-71
2021/10/16 03:32:01;;;;;;;;;;;7.10;99.90;;;;;;5007740;28;19943;-72
2021/10/16 03:34:29;;;;;;;;;;;7.10;99.90;;;;;;5000923;28;19926;-71
2021/10/16 03:36:56;;;;;;;;;;;7.10;99.90;;;;;;4994424;28;20003;-71
2021/10/16 03:39:24;;;;;;;;;;;7.10;99.90;;;;;;5012994;28;19967;-71
2021/10/16 03:41:51;;;;;;;;;;;7.10;99.90;;;;;;5011171;28;19945;-71
2021/10/16 03:44:17;;;;;;;;;;;7.10;99.90;;;;;;5012119;28;19969;-71
2021/10/16 03:46:44;;;;;;;;;;;7.20;99.90;;;;;;5010535;28;19942;-71
2021/10/16 03:49:10;;;;;;;;;;;7.30;99.90;;;;;;5011736;28;19925;-71
2021/10/16 03:51:37;;;;;;;;;;;7.20;99.90;;;;;;5010955;28;20007;-71
2021/10/16 03:54:04;;;;;;;;;;;7.20;99.90;;;;;;5011898;28;19925;-72
2021/10/16 03:56:32;;;;;;;;;;;7.10;99.90;;;;;;5011768;28;20000;-73
2021/10/16 03:58:58;;;;;;;;;;;7.10;99.90;;;;;;4993313;28;19932;-73
2021/10/16 04:01:25;;;;;;;;;;;7.20;99.90;;;;;;4992573;28;20008;-72
2021/10/16 04:03:52;;;;;;;;;;;7.10;99.90;;;;;;5004139;28;19926;-72
2021/10/16 04:06:18;;;;;;;;;;;7.20;99.90;;;;;;5003612;28;20013;-72
2021/10/16 04:08:45;;;;;;;;;;;7.20;99.90;;;;;;5000092;28;20372;-72
2021/10/16 04:11:12;;;;;;;;;;;7.20;99.90;;;;;;4992469;28;19926;-72
2021/10/16 04:13:40;;;;;;;;;;;7.20;99.90;;;;;;4993911;28;19926;-72
2021/10/16 04:16:06;;;;;;;;;;;7.10;99.90;;;;;;4992330;28;19925;-72
2021/10/16 04:18:33;;;;;;;;;;;7.10;99.90;;;;;;5007646;28;19988;-72
2021/10/16 04:20:59;;;;;;;;;;;6.90;99.90;;;;;;5012038;28;19932;-73
2021/10/16 04:23:26;;;;;;;;;;;6.80;99.90;;;;;;4997093;28;19926;-73
2021/10/16 04:25:53;;;;;;;;;;;6.70;99.90;;;;;;4992609;28;19930;-72
2021/10/16 04:28:19;;;;;;;;;;;6.60;99.90;;;;;;4992544;28;19926;-72
2021/10/16 04:30:47;;;;;;;;;;;6.50;99.90;;;;;;4992350;28;19926;-73
2021/10/16 04:33:14;;;;;;;;;;;6.50;99.90;;;;;;5004686;28;20411;-72
2021/10/16 04:35:41;;;;;;;;;;;6.40;99.90;;;;;;4994343;28;19925;-72
2021/10/16 04:38:08;;;;;;;;;;;6.40;99.90;;;;;;5004401;28;19929;-72
2021/10/16 04:40:34;;;;;;;;;;;6.40;99.90;;;;;;4996049;28;19926;-73
2021/10/16 04:43:05;;;;;;;;;;;6.40;99.90;;;;;;5002706;28;19936;-73
2021/10/16 04:45:32;;;;;;;;;;;6.50;99.90;;;;;;5011508;28;20453;-73
2021/10/16 04:48:00;;;;;;;;;;;6.50;99.90;;;;;;5009394;28;19925;-72
2021/10/16 04:50:27;;;;;;;;;;;6.50;99.90;;;;;;5011590;28;19925;-72
2021/10/16 04:52:53;;;;;;;;;;;6.50;99.90;;;;;;5009968;28;20020;-71
2021/10/16 04:55:23;;;;;;;;;;;6.50;99.90;;;;;;5011342;28;19928;-71
2021/10/16 04:57:50;;;;;;;;;;;6.40;99.90;;;;;;5010066;28;19997;-71
2021/10/16 05:00:16;;;;;;;;;;;6.30;99.90;;;;;;5011671;28;20329;-71
2021/10/16 05:02:43;;;;;;;;;;;6.30;99.90;;;;;;5004584;28;19995;-71
2021/10/16 05:05:11;;;;;;;;;;;6.30;99.90;;;;;;4991837;28;19922;-71
2021/10/16 05:07:38;;;;;;;;;;;6.20;99.90;;;;;;4999342;28;19956;-71
2021/10/16 05:10:05;;;;;;;;;;;6.10;99.90;;;;;;4998269;28;20013;-71
2021/10/16 05:12:31;;;;;;;;;;;6.10;99.90;;;;;;4998825;28;19921;-71
2021/10/16 05:14:58;;;;;;;;;;;6.10;99.90;;;;;;5011448;28;19995;-71
2021/10/16 05:17:25;;;;;;;;;;;6.00;99.90;;;;;;5009370;28;19928;-71
2021/10/16 05:19:51;;;;;;;;;;;5.90;99.90;;;;;;5011095;28;19961;-71
2021/10/16 05:22:19;;;;;;;;;;;5.90;99.90;;;;;;5009588;28;19927;-72
2021/10/16 05:24:46;;;;;;;;;;;6.00;99.90;;;;;;5011077;28;19921;-71
2021/10/16 05:27:13;;;;;;;;;;;6.00;99.90;;;;;;5007333;28;19922;-71
2021/10/16 05:29:39;;;;;;;;;;;6.00;99.90;;;;;;4992711;28;19921;-71
2021/10/16 05:32:06;;;;;;;;;;;6.00;99.90;;;;;;4991880;28;20294;-72
2021/10/16 05:34:33;;;;;;;;;;;6.00;99.90;;;;;;4991743;28;19928;-71
2021/10/16 05:37:00;;;;;;;;;;;6.00;99.90;;;;;;4993600;28;20400;-71
2021/10/16 05:39:28;;;;;;;;;;;6.00;99.90;;;;;;5010242;28;20372;-71
2021/10/16 05:41:54;;;;;;;;;;;6.10;99.90;;;;;;5009312;28;19956;-73
2021/10/16 05:44:21;;;;;;;;;;;6.00;99.90;;;;;;5010599;28;20360;-71
2021/10/16 05:46:48;;;;;;;;;;;6.10;99.90;;;;;;5009175;28;19927;-71
2021/10/16 05:49:14;;;;;;;;;;;6.00;99.90;;;;;;4990900;28;19942;-71
2021/10/16 05:51:41;;;;;;;;;;;6.00;99.90;;;;;;4989060;28;20050;-71
2021/10/16 05:54:08;;;;;;;;;;;5.80;99.90;;;;;;5007173;28;19935;-72
2021/10/16 05:56:36;;;;;;;;;;;5.70;99.90;;;;;;4990354;28;19944;-71
2021/10/16 05:59:02;;;;;;;;;;;5.70;99.90;;;;;;4990757;28;19925;-71
2021/10/16 06:01:29;;;;;;;;;;;5.80;99.90;;;;;;4990666;28;20008;-72
2021/10/16 06:03:56;;;;;;;;;;;5.80;99.90;;;;;;4991339;28;19929;-72
2021/10/16 06:06:22;;;;;;;;;;;5.80;99.90;;;;;;5004988;28;20036;-72
2021/10/16 06:08:49;;;;;;;;;;;5.80;99.90;;;;;;4991858;28;19921;-72
2021/10/16 06:11:15;;;;;;;;;;;5.80;99.90;;;;;;4990584;28;20016;-73
2021/10/16 06:13:44;;;;;;;;;;;5.70;99.90;;;;;;5006549;28;19922;-72
2021/10/16 06:16:10;;;;;;;;;;;5.70;99.90;;;;;;5009462;28;19921;-73
2021/10/16 06:18:39;;;;;;;;;;;5.80;99.90;;;;;;5006786;28;19963;-72
2021/10/16 06:21:06;;;;;;;;;;;5.80;99.90;;;;;;5009619;28;19921;-73
2021/10/16 06:23:33;;;;;;;;;;;5.80;99.90;;;;;;4993360;28;19928;-72
2021/10/16 06:26:00;;;;;;;;;;;6.00;99.90;;;;;;4990178;28;19921;-72
2021/10/16 06:28:26;;;;;;;;;;;6.00;99.90;;;;;;5004684;28;20299;-72
2021/10/16 06:30:54;;;;;;;;;;;6.10;99.90;;;;;;5009944;28;19966;-73
2021/10/16 06:33:22;;;;;;;;;;;6.20;99.90;;;;;;5007885;28;19928;-73
2021/10/16 06:35:49;;;;;;;;;;;6.20;99.90;;;;;;5009020;28;20013;-73
2021/10/16 06:38:16;;;;;;;;;;;6.30;99.90;;;;;;5007632;28;19928;-74
2021/10/16 06:40:42;;;;;;;;;;;6.20;99.90;;;;;;5009442;28;19921;-73
2021/10/16 06:43:09;;;;;;;;;;;6.40;99.90;;;;;;5007127;28;20524;-73
2021/10/16 06:45:35;;;;;;;;;;;6.50;99.90;;;;;;5009463;28;19921;-73
2021/10/16 06:48:03;;;;;;;;;;;6.70;99.90;;;;;;5007750;28;19921;-73
2021/10/16 06:50:30;;;;;;;;;;;6.80;99.90;;;;;;5009737;28;19922;-73
2021/10/16 06:52:57;;;;;;;;;;;6.90;99.90;;;;;;5007964;28;19936;-73
2021/10/16 06:55:24;;;;;;;;;;;7.10;99.90;;;;;;5009679;28;19921;-71
2021/10/16 06:57:50;;;;;;;;;;;7.20;99.90;;;;;;5007810;28;20026;-72
2021/10/16 07:00:20;;;;;;;;;;;7.30;99.90;;;;;;5009240;28;19974;-72
2021/10/16 07:02:49;;;;;;;;;;;7.40;99.90;;;;;;4999118;28;19922;-74
2021/10/16 07:05:17;;;;;;;;;;;7.30;99.90;;;;;;4994403;28;19922;-71
2021/10/16 07:07:44;;;;;;;;;;;7.60;99.90;;;;;;5004660;28;19921;-73
2021/10/16 07:10:11;;;;;;;;;;;7.70;99.90;;;;;;5009100;28;19965;-72
2021/10/16 07:12:37;;;;;;;;;;;7.90;99.90;;;;;;5003563;28;20315;-72
2021/10/16 07:15:04;;;;;;;;;;;8.00;99.90;;;;;;4992978;28;20020;-72
2021/10/16 07:17:31;;;;;;;;;;;8.10;99.90;;;;;;4999639;28;19927;-72
2021/10/16 07:19:58;;;;;;;;;;;8.10;99.90;;;;;;5012856;28;19927;-72
2021/10/16 07:22:26;;;;;;;;;;;8.20;99.90;;;;;;5010978;28;19958;-72
2021/10/16 07:24:53;;;;;;;;;;;8.30;99.90;;;;;;5012828;28;19929;-72
2021/10/16 07:27:19;;;;;;;;;;;8.40;99.90;;;;;;5010836;28;19943;-72
2021/10/16 07:29:46;;;;;;;;;;;8.50;99.90;;;;;;5006730;28;20419;-72
2021/10/16 07:32:14;;;;;;;;;;;8.60;99.90;;;;;;4997038;28;19925;-72
2021/10/16 07:34:41;;;;;;;;;;;8.60;99.90;;;;;;4996640;28;19969;-72
2021/10/16 07:37:07;;;;;;;;;;;8.80;99.90;;;;;;4993051;28;19932;-72
2021/10/16 07:39:35;;;;;;;;;;;8.80;99.90;;;;;;5000210;28;19939;-72
2021/10/16 07:42:02;;;;;;;;;;;8.90;99.90;;;;;;5008308;28;19928;-73
2021/10/16 07:44:29;;;;;;;;;;;9.10;99.90;;;;;;5011560;28;19933;-73
2021/10/16 07:46:55;;;;;;;;;;;9.30;99.90;;;;;;5009720;28;19975;-73
2021/10/16 07:49:22;;;;;;;;;;;9.40;99.90;;;;;;5012035;28;20024;-72
2021/10/16 07:51:49;;;;;;;;;;;9.60;99.90;;;;;;5009255;28;20079;-73
2021/10/16 07:54:15;;;;;;;;;;;10.10;99.90;;;;;;5011541;28;19921;-73
2021/10/16 07:56:43;;;;;;;;;;;10.90;99.90;;;;;;5001144;28;20012;-73
2021/10/16 07:59:10;;;;;;;;;;;11.40;99.90;;;;;;5009654;28;19960;-73
2021/10/16 08:01:37;;;;;;;;;;;11.90;99.90;;;;;;4992272;28;19921;-74
2021/10/16 08:04:03;;;;;;;;;;;12.10;99.90;;;;;;5011123;28;19921;-73
2021/10/16 08:06:30;;;;;;;;;;;12.30;99.90;;;;;;4997388;28;19933;-73
2021/10/16 08:08:57;;;;;;;;;;;13.50;99.90;;;;;;5006792;28;19958;-73
2021/10/16 08:11:23;;;;;;;;;;;15.70;99.90;;;;;;4992304;28;20368;-73
2021/10/16 08:13:51;;;;;;;;;;;17.10;94.20;;;;;;4992652;28;19922;-73
2021/10/16 08:16:18;;;;;;;;;;;17.30;89.90;;;;;;4992409;28;19925;-73
2021/10/16 08:18:45;;;;;;;;;;;17.60;85.00;;;;;;5008283;28;19928;-73
2021/10/16 08:21:11;;;;;;;;;;;17.50;83.30;;;;;;5011139;28;19922;-73
2021/10/16 08:23:38;;;;;;;;;;;18.60;80.70;;;;;;5009898;28;20019;-73
2021/10/16 08:26:05;;;;;;;;;;;19.00;72.10;;;;;;5011130;28;19921;-73
2021/10/16 08:28:31;;;;;;;;;;;19.50;65.00;;;;;;5010164;28;19922;-73
2021/10/16 08:31:01;;;;;;;;;;;19.90;59.20;;;;;;5011451;28;19921;-72
2021/10/16 08:33:28;;;;;;;;;;;19.00;58.70;;;;;;5009564;28;19928;-72
2021/10/16 08:35:55;;;;;;;;;;;19.50;57.30;;;;;;5011345;28;19928;-73
2021/10/16 08:38:21;;;;;;;;;;;19.00;61.20;;;;;;4996673;28;19922;-73
2021/10/16 08:40:49;;;;;;;;;;;19.30;57.60;;;;;;4993178;28;20009;-73
2021/10/16 08:43:16;;;;;;;;;;;18.40;55.50;;;;;;5004848;28;19921;-72
2021/10/16 08:45:43;;;;;;;;;;;17.60;58.00;;;;;;5011111;28;20012;-73
2021/10/16 08:48:12;;;;;;;;;;;17.20;60.30;;;;;;5008964;28;19929;-72
2021/10/16 08:50:39;;;;;;;;;;;17.00;61.70;;;;;;5010905;28;19922;-72
2021/10/16 08:53:06;;;;;;;;;;;16.10;65.50;;;;;;5009435;28;19928;-72
2021/10/16 08:55:32;;;;;;;;;;;14.40;80.60;;;;;;5011001;28;20016;-73
2021/10/16 08:57:59;;;;;;;;;;;13.30;92.20;;;;;;5009620;28;20012;-72
2021/10/16 09:00:49;;;;;;;;;;;13.00;97.90;;;;;;5010898;28;19928;-72
2021/10/16 09:03:19;;;;;;;;;;;12.80;99.50;;;;;;5007802;28;19921;-72
2021/10/16 09:06:02;;;;;;;;;;;12.40;99.90;;;;;;4990866;28;20242;-72
2021/10/16 09:08:30;;;;;;;;;;;12.40;99.90;;;;;;4993439;28;19928;-72
2021/10/16 09:11:14;;;;;;;;;;;12.80;99.90;;;;;;4995749;28;20521;-73
2021/10/16 09:13:43;;;;;;;;;;;13.00;99.90;;;;;;4989296;28;19928;-71
2021/10/16 09:16:18;;;;;;;;;;;13.70;99.90;;;;;;4991285;28;20372;-71
2021/10/16 09:18:51;;;;;;;;;;;13.80;99.40;;;;;;5000835;28;19967;-72
2021/10/16 09:21:18;;;;;;;;;;;13.70;99.90;;;;;;5010493;28;19928;-72
2021/10/16 09:23:44;;;;;;;;;;;14.00;98.70;;;;;;4992593;28;19944;-72
2021/10/16 09:26:11;;;;;;;;;;;14.20;98.90;;;;;;4990903;28;19990;-72
2021/10/16 09:28:38;;;;;;;;;;;13.90;98.50;;;;;;5006462;28;19921;-73
2021/10/16 09:31:09;;;;;;;;;;;13.50;99.00;;;;;;5010725;28;19978;-73
2021/10/16 09:33:46;;;;;;;;;;;13.60;99.80;;;;;;5005849;28;20000;-73
2021/10/16 09:36:23;;;;;;;;;;;14.00;98.90;;;;;;5008225;28;19959;-73
2021/10/16 09:38:49;;;;;;;;;;;13.80;97.80;;;;;;5007642;28;19954;-72
2021/10/16 09:41:22;;;;;;;;;;;13.70;97.10;;;;;;5010365;28;19954;-73
2021/10/16 09:43:48;;;;;;;;;;;13.60;97.20;;;;;;5009079;28;20395;-73
2021/10/16 09:46:16;;;;;;;;;;;14.20;96.60;;;;;;5011421;28;20459;-71
2021/10/16 09:48:45;;;;;;;;;;;14.50;95.50;;;;;;5008198;28;19959;-72
2021/10/16 09:51:14;;;;;;;;;;;14.70;94.90;;;;;;5004758;28;19958;-73
2021/10/16 09:53:44;;;;;;;;;;;14.70;94.10;;;;;;4990553;28;20438;-72
2021/10/16 09:56:11;;;;;;;;;;;14.40;94.70;;;;;;4990553;28;19936;-73
2021/10/16 09:58:39;;;;;;;;;;;14.00;95.00;;;;;;5005621;28;20434;-73
2021/10/16 10:01:05;;;;;;;;;;;14.40;94.60;;;;;;4994100;28;20051;-73
2021/10/16 10:03:33;;;;;;;;;;;14.60;93.00;;;;;;4993046;28;19953;-72
2021/10/16 10:05:59;;;;;;;;;;;14.60;92.70;;;;;;4990653;28;20079;-73
2021/10/16 10:08:26;;;;;;;;;;;14.50;92.40;;;;;;4991364;28;19952;-73
2021/10/16 10:10:55;;;;;;;;;;;14.30;90.50;;;;;;4990593;28;19958;-74
2021/10/16 10:13:24;;;;;;;;;;;14.30;88.70;;;;;;4999759;28;20488;-72
2021/10/16 10:15:51;;;;;;;;;;;14.30;82.10;;;;;;5009300;28;19979;-73
2021/10/16 10:21:02;;;;;;;;;;;14.20;73.10;;;;;;5006824;28;19973;-72
2021/10/16 10:23:29;;;;;;;;;;;14.20;70.50;;;;;;5007747;28;19950;-74
2021/10/16 10:26:14;;;;;;;;;;;14.00;66.90;;;;;;5008103;28;19974;-73
2021/10/16 10:28:55;;;;;;;;;;;13.70;66.10;;;;;;4990627;28;19954;-73
2021/10/16 10:31:40;;;;;;;;;;;13.70;66.40;;;;;;4990621;28;19953;-73
2021/10/16 10:34:11;;;;;;;;;;;13.50;66.70;;;;;;4991270;28;19992;-72
2021/10/16 10:36:43;;;;;;;;;;;13.50;64.40;;;;;;4990064;28;19953;-72
2021/10/16 10:39:36;;;;;;;;;;;13.60;67.60;;;;;;4990212;28;20043;-73
2021/10/16 10:42:03;;;;;;;;;;;13.90;68.40;;;;;;4992833;28;19947;-72
2021/10/16 10:44:48;;;;;;;;;;;13.90;72.60;;;;;;5009050;28;20014;-72
2021/10/16 10:47:23;;;;;;;;;;;14.00;73.40;;;;;;5007586;28;19977;-72
2021/10/16 10:49:50;;;;;;;;;;;13.90;71.70;;;;;;5009135;28;20343;-73
2021/10/16 10:52:17;;;;;;;;;;;14.00;73.90;;;;;;5007754;28;19961;-73
2021/10/16 10:55:10;;;;;;;;;;;14.00;71.20;;;;;;5008706;28;20050;-73
2021/10/16 10:57:52;;;;;;;;;;;14.20;67.60;;;;;;5006700;28;19953;-73
2021/10/16 11:00:38;;;;;;;;;;;14.30;63.00;;;;;;5008830;28;19969;-74
2021/10/16 11:03:20;;;;;;;;;;;14.30;67.10;;;;;;5001023;28;19951;-73
2021/10/16 11:05:48;;;;;;;;;;;14.20;65.20;;;;;;4988340;28;19973;-73
2021/10/16 11:08:15;;;;;;;;;;;14.20;59.90;;;;;;4998358;28;19959;-73
2021/10/16 11:10:43;;;;;;;;;;;13.80;57.60;;;;;;5009084;28;19953;-72
2021/10/16 11:13:11;;;;;;;;;;;13.90;56.00;;;;;;4995948;28;19955;-73
2021/10/16 11:15:37;;;;;;;;;;;13.70;55.00;;;;;;4989266;28;19953;-73
2021/10/16 11:18:09;;;;;;;;;;;13.90;54.90;;;;;;4998269;28;19957;-72
2021/10/16 11:20:35;;;;;;;;;;;13.80;54.80;;;;;;5009530;28;19961;-73
2021/10/16 11:23:04;;;;;;;;;;;14.00;54.80;;;;;;5005791;28;19953;-73
2021/10/16 11:25:32;;;;;;;;;;;14.10;54.10;;;;;;5008593;28;19964;-73
2021/10/16 11:28:02;;;;;;;;;;;14.10;54.10;;;;;;5007231;28;19956;-73
2021/10/16 11:30:30;;;;;;;;;;;14.30;54.50;;;;;;4992391;28;19964;-73
2021/10/16 11:32:59;;;;;;;;;;;14.50;54.00;;;;;;5001417;28;20036;-73
2021/10/16 11:35:26;;;;;;;;;;;14.60;51.90;;;;;;5008654;28;20430;-73
2021/10/16 11:37:53;;;;;;;;;;;14.70;51.40;;;;;;5007046;28;20032;-73
2021/10/16 11:40:22;;;;;;;;;;;14.80;52.60;;;;;;5009177;28;19961;-74
2021/10/16 11:42:50;;;;;;;;;;;14.60;56.10;;;;;;5007007;28;20469;-73
2021/10/16 11:45:18;;;;;;;;;;;14.00;55.10;;;;;;5008790;28;19949;-73
2021/10/16 11:47:47;;;;;;;;;;;13.60;53.20;;;;;;5006927;28;19959;-73
2021/10/16 11:50:17;;;;;;;;;;;13.50;55.00;;;;;;5008449;28;20298;-73
2021/10/16 11:52:45;;;;;;;;;;;13.50;57.10;;;;;;4991390;28;19965;-73
2021/10/16 11:55:16;;;;;;;;;;;13.50;55.70;;;;;;4989439;28;19956;-73
2021/10/16 11:57:44;;;;;;;;;;;13.60;54.50;;;;;;4999411;28;19976;-73
2021/10/16 12:00:18;;;;;;;;;;;13.80;53.50;;;;;;5001451;28;19970;-73
2021/10/16 12:02:44;;;;;;;;;;;14.10;54.20;;;;;;5001145;28;19991;-73
2021/10/16 12:05:11;;;;;;;;;;;14.10;55.10;;;;;;5011987;28;19956;-73
2021/10/16 12:07:38;;;;;;;;;;;14.20;53.50;;;;;;5007325;28;19976;-73
2021/10/16 12:10:21;;;;;;;;;;;14.40;53.40;;;;;;4991707;28;19954;-72
2021/10/16 12:13:00;;;;;;;;;;;14.70;52.70;;;;;;5000640;28;20042;-72
2021/10/16 12:15:32;;;;;;;;;;;14.90;52.00;;;;;;5011640;28;20420;-71
2021/10/16 12:17:59;;;;;;;;;;;15.00;51.40;;;;;;5009682;28;19935;-72
2021/10/16 12:20:26;;;;;;;;;;;15.10;51.00;;;;;;5011920;28;19960;-72
2021/10/16 12:22:57;;;;;;;;;;;14.80;51.70;;;;;;5010344;28;20282;-72
2021/10/16 12:25:23;;;;;;;;;;;15.00;51.60;;;;;;5011804;28;19973;-72
2021/10/16 12:28:00;;;;;;;;;;;15.10;50.50;;;;;;5010190;28;19972;-72
2021/10/16 12:30:27;;;;;;;;;;;15.00;50.40;;;;;;4995761;28;19956;-72
2021/10/16 12:33:03;;;;;;;;;;;14.70;50.20;;;;;;5001591;28;19960;-72
2021/10/16 12:35:30;;;;;;;;;;;14.60;50.60;;;;;;5011120;28;19952;-72
2021/10/16 12:37:58;;;;;;;;;;;14.80;51.60;;;;;;5009592;28;20000;-72
2021/10/16 12:40:34;;;;;;;;;;;14.50;51.00;;;;;;4999885;28;19967;-72
2021/10/16 12:43:02;;;;;;;;;;;14.60;49.90;;;;;;5002954;28;19935;-73
2021/10/16 12:45:36;;;;;;;;;;;14.70;49.90;;;;;;5011049;28;19962;-73
2021/10/16 12:48:17;;;;;;;;;;;14.80;50.80;;;;;;5000233;28;19938;-72
2021/10/16 12:50:51;;;;;;;;;;;14.80;50.20;;;;;;4993158;28;20037;-72
2021/10/16 12:53:17;;;;;;;;;;;14.20;52.20;;;;;;4991986;28;20482;-72
2021/10/16 12:55:45;;;;;;;;;;;13.80;50.50;;;;;;4991771;28;20051;-72
2021/10/16 12:58:14;;;;;;;;;;;13.80;50.60;;;;;;4992903;28;19960;-71
2021/10/16 13:00:42;;;;;;;;;;;13.80;53.50;;;;;;4991698;28;19981;-72
2021/10/16 13:03:09;;;;;;;;;;;14.00;54.50;;;;;;4992328;28;19966;-72
2021/10/16 13:05:35;;;;;;;;;;;13.80;53.40;;;;;;4991526;28;20438;-72
2021/10/16 13:08:03;;;;;;;;;;;13.70;53.70;;;;;;4997873;28;19968;-72
2021/10/16 13:10:30;;;;;;;;;;;13.90;53.90;;;;;;5010990;28;19952;-72
2021/10/16 13:12:56;;;;;;;;;;;14.30;53.70;;;;;;5008674;28;20046;-72
2021/10/16 13:15:24;;;;;;;;;;;14.40;52.40;;;;;;5010915;28;19984;-72
2021/10/16 13:17:51;;;;;;;;;;;14.50;52.20;;;;;;5005294;28;19953;-72
2021/10/16 13:20:18;;;;;;;;;;;14.50;52.90;;;;;;4993195;28;19956;-72
2021/10/16 13:22:45;;;;;;;;;;;14.40;52.50;;;;;;4999708;28;19957;-72
2021/10/16 13:25:12;;;;;;;;;;;14.40;53.10;;;;;;5009526;28;20302;-73
2021/10/16 13:27:39;;;;;;;;;;;14.30;51.60;;;;;;5001430;28;19972;-72
2021/10/16 13:30:07;;;;;;;;;;;14.10;52.70;;;;;;5010469;28;19961;-71
2021/10/16 13:32:35;;;;;;;;;;;14.00;54.50;;;;;;5008774;28;19976;-72
2021/10/16 13:35:02;;;;;;;;;;;13.80;54.20;;;;;;5011068;28;19957;-72
2021/10/16 13:37:29;;;;;;;;;;;13.70;54.40;;;;;;5008980;28;19961;-73
2021/10/16 13:39:56;;;;;;;;;;;13.60;54.20;;;;;;5010838;28;19954;-72
2021/10/16 13:42:23;;;;;;;;;;;13.70;54.00;;;;;;5008919;28;19952;-73
2021/10/16 13:44:50;;;;;;;;;;;13.90;53.60;;;;;;4999649;28;19962;-73
2021/10/16 13:47:17;;;;;;;;;;;14.00;54.40;;;;;;4995568;28;19979;-72
2021/10/16 13:49:45;;;;;;;;;;;13.90;53.40;;;;;;5010735;28;20047;-72
2021/10/16 13:52:11;;;;;;;;;;;14.00;53.50;;;;;;5003285;28;19961;-72
2021/10/16 13:54:38;;;;;;;;;;;14.20;53.20;;;;;;4990639;28;19958;-71
2021/10/16 13:57:05;;;;;;;;;;;14.30;53.00;;;;;;4997181;28;20054;-71
2021/10/16 13:59:32;;;;;;;;;;;14.30;52.00;;;;;;4990629;28;20308;-72
2021/10/16 14:01:58;;;;;;;;;;;14.50;53.30;;;;;;4993252;28;19968;-71
2021/10/16 14:04:25;;;;;;;;;;;14.40;52.60;;;;;;5010409;28;20563;-73
2021/10/16 14:06:53;;;;;;;;;;;14.30;52.10;;;;;;5008229;28;20027;-73
2021/10/16 14:09:20;;;;;;;;;;;14.00;53.20;;;;;;5010098;28;20039;-73
2021/10/16 14:11:47;;;;;;;;;;;13.90;54.60;;;;;;5004951;28;20052;-73
2021/10/16 14:14:13;;;;;;;;;;;14.00;53.80;;;;;;5009871;28;19958;-73
2021/10/16 14:16:40;;;;;;;;;;;14.00;54.50;;;;;;5008130;28;20399;-74
2021/10/16 14:19:07;;;;;;;;;;;14.00;53.10;;;;;;4990252;28;19962;-71
2021/10/16 14:21:33;;;;;;;;;;;13.90;53.50;;;;;;4990148;28;19957;-72
2021/10/16 14:24:01;;;;;;;;;;;13.70;54.40;;;;;;5008164;28;20001;-73
2021/10/16 14:26:28;;;;;;;;;;;13.60;55.80;;;;;;5007878;28;20449;-72
2021/10/16 14:28:55;;;;;;;;;;;13.70;54.50;;;;;;4990356;28;19955;-73
2021/10/16 14:31:22;;;;;;;;;;;13.80;54.90;;;;;;4990387;28;19976;-73